Time;durP1;ratioP1;P1;durP2;ratioP2;P2;SDS_P1;SDS_P2;PMS_P1;PMS_P2;Temp;Humidity;BMP_temperature;BMP_pressure;BME280_temperature;BME280_humidity;BME280_pressure;Samples;Min_cycle;Max_cycle;Signal;HPM_P1;HPM_P2
2023/04/06 00:00:17;;;;;;;11.90;10.57;;;;;;;1.93;73.92;151862.88;5067092;28;20426;-85
2023/04/06 00:02:44;;;;;;;14.60;10.37;;;;;;;1.89;73.78;151851.25;5054456;28;20922;-85
2023/04/06 00:05:11;;;;;;;13.50;10.20;;;;;;;1.82;73.95;151835.88;5052814;28;20837;-85
2023/04/06 00:07:38;;;;;;;12.20;10.10;;;;;;;1.83;74.95;151837.13;5064986;28;20430;-85
2023/04/06 00:10:06;;;;;;;15.93;10.83;;;;;;;1.87;75.39;151846.13;5047309;28;20446;-85
2023/04/06 00:12:33;;;;;;;13.70;10.53;;;;;;;1.90;76.04;151855.16;5068902;28;20438;-85
2023/04/06 00:15:02;;;;;;;14.30;10.40;;;;;;;1.88;75.57;151849.97;5071315;28;20809;-85
2023/04/06 00:17:29;;;;;;;12.90;10.83;;;;;;;1.83;75.37;151837.13;5011335;28;20431;-85
2023/04/06 00:19:55;;;;;;;12.33;9.70;;;;;;;1.78;74.50;151824.25;5027799;28;20458;-85
2023/04/06 00:22:22;;;;;;;12.73;10.00;;;;;;;1.77;74.54;151821.72;5021657;28;20480;-84
2023/04/06 00:24:49;;;;;;;11.63;9.20;;;;;;;1.74;74.29;151814.00;5047875;28;20451;-84
2023/04/06 00:27:16;;;;;;;11.63;9.37;;;;;;;1.68;73.95;151799.88;5036353;28;20447;-83
2023/04/06 00:29:44;;;;;;;12.47;10.10;;;;;;;1.63;74.65;151787.03;5029687;28;20803;-84
2023/04/06 00:32:12;;;;;;;12.17;10.27;;;;;;;1.60;75.33;151779.31;5028086;28;20520;-83
2023/04/06 00:34:39;;;;;;;17.00;11.07;;;;;;;1.57;75.16;151770.28;5003681;28;20456;-84
2023/04/06 00:37:06;;;;;;;14.90;10.60;;;;;;;1.54;76.23;151762.56;5020770;28;20534;-84
2023/04/06 00:39:33;;;;;;;15.03;11.03;;;;;;;1.49;76.57;151749.72;5036731;28;20463;-84
2023/04/06 00:42:00;;;;;;;16.87;11.20;;;;;;;1.44;76.56;151736.88;5052614;28;20455;-84
2023/04/06 00:44:28;;;;;;;13.30;10.20;;;;;;;1.43;76.20;151734.34;5023269;28;20484;-84
2023/04/06 00:46:55;;;;;;;13.20;10.80;;;;;;;1.40;75.74;151727.94;5029139;28;20446;-84
2023/04/06 00:49:23;;;;;;;13.70;10.60;;;;;;;1.39;75.07;151724.03;5021372;28;20502;-84
2023/04/06 00:51:50;;;;;;;15.50;10.07;;;;;;;1.38;75.67;151721.50;5016205;28;20463;-84
2023/04/06 00:54:17;;;;;;;12.97;9.87;;;;;;;1.37;76.45;151718.91;5013136;28;20501;-84
2023/04/06 00:56:44;;;;;;;13.77;9.73;;;;;;;1.37;75.65;151718.91;5034566;28;20443;-84
2023/04/06 00:59:12;;;;;;;14.93;10.27;;;;;;;1.39;75.11;151724.03;5015720;28;20463;-84
2023/04/06 01:01:39;;;;;;;14.10;10.17;;;;;;;1.40;76.17;151727.94;5023032;28;20474;-84
2023/04/06 01:04:19;;;;;;;12.80;9.50;;;;;;;1.46;77.40;151742.00;5019151;28;20568;-84
2023/04/06 01:06:47;;;;;;;12.90;9.90;;;;;;;1.49;77.20;151751.03;5018492;28;20480;-84
2023/04/06 01:09:14;;;;;;;15.07;10.40;;;;;;;1.49;76.27;151749.72;5048541;28;20439;-84
2023/04/06 01:11:41;;;;;;;11.73;10.20;;;;;;;1.49;77.02;151751.03;5015496;28;20455;-84
2023/04/06 01:14:11;;;;;;;13.23;9.73;;;;;;;1.47;75.77;151744.59;5000905;28;20496;-84
2023/04/06 01:17:04;;;;;;;14.10;9.40;;;;;;;1.44;75.13;151736.88;5061227;28;20458;-84
2023/04/06 01:19:33;;;;;;;11.17;9.53;;;;;;;1.42;75.02;151733.06;5046230;28;20982;-84
2023/04/06 01:22:02;;;;;;;12.90;9.07;;;;;;;1.41;75.15;151730.47;5074832;28;20959;-84
2023/04/06 01:24:34;;;;;;;13.23;9.33;;;;;;;1.42;75.19;151731.75;5059645;28;20583;-84
2023/04/06 01:27:22;;;;;;;14.20;9.87;;;;;;;1.39;74.79;151725.34;5087097;28;20448;-83
2023/04/06 01:30:08;;;;;;;11.80;8.90;;;;;;;1.40;74.87;151726.63;5064890;28;20431;-83
2023/04/06 01:32:46;;;;;;;11.70;9.50;;;;;;;1.36;75.32;151717.63;5056843;28;20446;-85
2023/04/06 01:35:17;;;;;;;18.07;10.30;;;;;;;1.35;75.11;151713.78;5044299;28;20434;-84
2023/04/06 01:37:53;;;;;;;12.57;9.57;;;;;;;1.30;74.48;151700.94;5074187;28;20609;-84
2023/04/06 01:40:28;;;;;;;12.30;9.30;;;;;;;1.28;75.91;151695.78;5058714;28;20453;-85
2023/04/06 01:42:55;;;;;;;12.37;9.80;;;;;;;1.26;75.90;151690.66;5038542;28;20474;-84
2023/04/06 01:45:30;;;;;;;13.67;10.40;;;;;;;1.23;76.55;151685.53;5073530;28;20414;-84
2023/04/06 01:48:05;;;;;;;13.83;9.83;;;;;;;1.23;77.36;151684.22;5066400;28;20455;-85
2023/04/06 01:50:32;;;;;;;13.77;10.23;;;;;;;1.15;76.48;151664.97;5068425;28;20991;-84
2023/04/06 01:52:59;;;;;;;13.00;9.90;;;;;;;1.17;78.10;151668.78;5089553;28;20545;-84
2023/04/06 01:55:29;;;;;;;11.93;8.93;;;;;;;1.13;76.82;151659.84;5063153;28;20540;-76
2023/04/06 01:58:26;;;;;;;12.30;8.93;;;;;;;1.11;77.74;151654.66;5045096;28;20458;-76
2023/04/06 02:00:53;;;;;;;15.60;10.57;;;;;;;1.09;78.05;151649.53;5044499;28;21053;-76
2023/04/06 02:03:21;;;;;;;13.53;9.70;;;;;;;1.08;77.61;151647.00;5054268;28;20478;-76
2023/04/06 02:05:51;;;;;;;13.77;10.93;;;;;;;1.09;78.33;151648.25;5046479;28;20499;-76
2023/04/06 02:08:26;;;;;;;14.20;10.03;;;;;;;1.06;79.00;151640.56;5072082;28;20453;-76
2023/04/06 02:10:54;;;;;;;16.10;11.40;;;;;;;1.03;78.15;151634.09;5071721;28;20437;-76
2023/04/06 02:13:33;;;;;;;13.63;11.03;;;;;;;1.00;78.11;151626.44;5037442;28;20906;-76
2023/04/06 02:16:02;;;;;;;15.20;10.60;;;;;;;0.97;78.16;151618.72;5050729;28;20570;-76
2023/04/06 02:18:29;;;;;;;12.70;10.53;;;;;;;0.97;78.03;151618.72;5033480;28;20854;-76
2023/04/06 02:20:56;;;;;;;14.10;10.90;;;;;;;0.97;78.51;151618.72;5052959;28;20457;-76
2023/04/06 02:23:23;;;;;;;12.20;10.00;;;;;;;1.00;79.04;151625.16;5063856;28;20570;-76
2023/04/06 02:25:50;;;;;;;13.07;9.70;;;;;;;0.94;78.12;151611.03;5060950;28;20470;-76
2023/04/06 02:28:18;;;;;;;14.90;11.07;;;;;;;0.93;78.43;151608.44;5069742;28;20452;-76
2023/04/06 02:30:46;;;;;;;14.03;10.47;;;;;;;0.92;78.23;151605.91;5063592;28;20430;-76
2023/04/06 02:33:13;;;;;;;14.40;10.57;;;;;;;0.96;79.41;151614.84;5057687;28;20448;-76
2023/04/06 02:35:45;;;;;;;13.73;10.87;;;;;;;0.89;78.76;151598.19;5048592;28;20958;-76
2023/04/06 02:38:12;;;;;;;12.30;10.60;;;;;;;0.87;79.09;151593.06;5037917;28;20463;-76
2023/04/06 02:40:39;;;;;;;15.07;10.50;;;;;;;0.87;79.11;151593.06;5050719;28;20465;-76
2023/04/06 02:43:17;;;;;;;13.57;10.80;;;;;;;0.86;79.17;151590.47;5044953;28;20533;-76
2023/04/06 02:45:45;;;;;;;15.07;10.13;;;;;;;0.84;78.76;151585.34;5035922;28;20491;-76
2023/04/06 02:48:12;;;;;;;15.67;9.67;;;;;;;0.88;80.00;151594.31;5039219;28;20463;-77
2023/04/06 02:50:39;;;;;;;17.67;10.10;;;;;;;0.87;79.33;151593.06;5038276;28;20439;-77
2023/04/06 02:53:08;;;;;;;12.43;9.40;;;;;;;0.87;78.77;151593.06;5053997;28;20450;-76
2023/04/06 02:55:37;;;;;;;13.50;9.80;;;;;;;0.87;78.53;151591.75;5049360;28;20806;-77
2023/04/06 02:58:04;;;;;;;12.90;9.30;;;;;;;0.88;78.57;151595.59;5044634;28;20458;-77
2023/04/06 03:00:39;;;;;;;13.17;10.07;;;;;;;0.90;79.63;151600.72;5057610;28;20430;-77
2023/04/06 03:03:07;;;;;;;12.60;9.67;;;;;;;0.91;79.44;151603.31;5066372;28;20439;-77
2023/04/06 03:05:34;;;;;;;12.13;9.47;;;;;;;0.89;79.34;151598.19;5042713;28;20439;-76
2023/04/06 03:08:01;;;;;;;12.90;10.23;;;;;;;0.86;78.58;151589.19;5053441;28;20463;-76
2023/04/06 03:10:41;;;;;;;12.50;9.20;;;;;;;0.82;78.45;151580.16;5037896;28;20446;-76
2023/04/06 03:13:08;;;;;;;12.30;9.33;;;;;;;0.82;78.80;151580.16;5037992;28;20439;-77
2023/04/06 03:15:47;;;;;;;12.67;9.97;;;;;;;0.80;78.11;151573.75;5047616;28;20871;-77
2023/04/06 03:18:21;;;;;;;13.40;9.70;;;;;;;0.79;78.83;151572.50;5021997;28;20458;-76
2023/04/06 03:20:48;;;;;;;11.83;9.13;;;;;;;0.75;78.14;151560.91;5055794;28;20443;-76
2023/04/06 03:23:17;;;;;;;11.43;9.20;;;;;;;0.72;78.30;151554.50;5036785;28;20482;-76
2023/04/06 03:25:45;;;;;;;12.67;8.20;;;;;;;0.72;78.31;151554.50;5065030;28;20446;-76
2023/04/06 03:28:16;;;;;;;13.20;9.03;;;;;;;0.70;77.95;151549.38;5062861;28;20442;-76
2023/04/06 03:30:51;;;;;;;14.30;10.43;;;;;;;0.74;78.85;151559.66;5054392;28;20442;-76
2023/04/06 03:33:26;;;;;;;15.23;9.50;;;;;;;0.73;78.77;151557.09;5043686;28;20456;-77
2023/04/06 03:35:55;;;;;;;12.07;8.90;;;;;;;0.68;78.27;151542.97;5056579;28;20496;-76
2023/04/06 03:38:24;;;;;;;11.70;9.07;;;;;;;0.68;77.96;151542.97;5072319;28;20495;-76
2023/04/06 03:40:51;;;;;;;13.10;9.53;;;;;;;0.68;78.90;151542.97;5054257;28;20442;-76
2023/04/06 03:43:22;;;;;;;13.20;9.53;;;;;;;0.62;77.40;151528.81;5056009;28;20766;-76
2023/04/06 03:45:51;;;;;;;12.77;9.70;;;;;;;0.61;78.50;151527.53;5063385;28;20546;-76
2023/04/06 03:48:18;;;;;;;10.73;9.60;;;;;;;0.65;79.33;151535.25;5047046;28;20451;-76
2023/04/06 03:50:45;;;;;;;12.37;9.27;;;;;;;0.67;79.81;151541.66;5066353;28;20462;-75
2023/04/06 03:53:12;;;;;;;13.10;9.60;;;;;;;0.69;80.55;151546.78;5040758;28;20447;-76
2023/04/06 03:55:39;;;;;;;14.63;10.60;;;;;;;0.65;80.12;151536.53;5036606;28;20489;-76
2023/04/06 03:58:06;;;;;;;16.27;10.70;;;;;;;0.63;80.48;151531.41;5043195;28;20882;-77
2023/04/06 04:00:33;;;;;;;12.97;10.10;;;;;;;0.62;80.93;151528.81;5040250;28;20446;-77
2023/04/06 04:03:02;;;;;;;13.00;10.23;;;;;;;0.62;80.76;151528.81;5069389;28;20485;-76
2023/04/06 04:05:29;;;;;;;14.53;10.60;;;;;;;0.60;80.59;151523.72;5064638;28;20565;-76
2023/04/06 04:07:56;;;;;;;12.87;9.23;;;;;;;0.65;82.38;151535.25;5072539;28;20449;-76
2023/04/06 04:10:26;;;;;;;11.97;8.80;;;;;;;0.58;79.93;151519.81;5056563;28;20873;-76
2023/04/06 04:12:53;;;;;;;14.07;9.43;;;;;;;0.59;79.28;151521.13;5053806;28;20538;-76
2023/04/06 04:15:20;;;;;;;12.90;8.37;;;;;;;0.65;79.47;151536.53;5052672;28;20442;-75
2023/04/06 04:17:49;;;;;;;11.60;8.77;;;;;;;0.63;78.88;151531.41;5037502;28;20504;-75
2023/04/06 04:20:17;;;;;;;14.20;9.93;;;;;;;0.63;79.30;151531.41;5074100;28;20438;-75
2023/04/06 04:22:44;;;;;;;13.67;9.87;;;;;;;0.63;79.99;151531.41;5067738;28;20450;-75
2023/04/06 04:25:11;;;;;;;11.50;8.90;;;;;;;0.61;79.81;151526.25;5059099;28;20478;-75
2023/04/06 04:27:44;;;;;;;10.20;8.97;;;;;;;0.61;79.66;151526.25;5049041;28;20450;-77
2023/04/06 04:30:11;;;;;;;12.27;9.00;;;;;;;0.57;79.38;151516.00;5061285;28;20447;-78
2023/04/06 04:32:38;;;;;;;12.33;8.73;;;;;;;0.58;79.10;151519.81;5052856;28;20443;-76
2023/04/06 04:35:08;;;;;;;13.03;9.40;;;;;;;0.63;79.59;151530.13;5051720;28;20807;-77
2023/04/06 04:37:39;;;;;;;10.97;9.27;;;;;;;0.64;80.03;151533.94;5036488;28;20447;-76
2023/04/06 04:40:07;;;;;;;13.63;9.03;;;;;;;0.64;79.71;151533.94;5049780;28;20448;-76
2023/04/06 04:42:44;;;;;;;10.97;9.30;;;;;;;0.65;80.12;151536.53;5055161;28;20462;-76
2023/04/06 04:45:18;;;;;;;13.77;9.63;;;;;;;0.67;81.12;151540.38;5047398;28;20555;-76
2023/04/06 04:47:45;;;;;;;13.80;9.20;;;;;;;0.68;81.35;151542.97;5052284;28;20645;-76
2023/04/06 04:50:14;;;;;;;9.87;8.53;;;;;;;0.68;80.98;151544.25;5045497;28;20886;-76
2023/04/06 04:52:46;;;;;;;15.10;10.00;;;;;;;0.67;81.17;151540.38;5068008;28;20546;-76
2023/04/06 04:55:24;;;;;;;11.17;9.33;;;;;;;0.70;81.82;151548.09;5021874;28;20439;-76
2023/04/06 04:57:55;;;;;;;13.57;9.87;;;;;;;0.67;81.27;151541.66;5069480;28;20454;-76
2023/04/06 05:00:27;;;;;;;11.00;8.37;;;;;;;0.67;80.16;151540.38;5042258;28;20850;-76
2023/04/06 05:02:57;;;;;;;10.97;8.97;;;;;;;0.69;80.07;151546.78;5035910;28;20443;-76
2023/04/06 05:05:27;;;;;;;13.00;9.80;;;;;;;0.67;79.66;151541.66;5042613;28;20481;-76
2023/04/06 05:07:56;;;;;;;11.63;9.10;;;;;;;0.70;80.38;151549.38;5043594;28;20455;-76
2023/04/06 05:10:39;;;;;;;11.30;8.90;;;;;;;0.73;80.70;151557.09;5050805;28;20549;-76
2023/04/06 05:13:07;;;;;;;12.07;8.67;;;;;;;0.77;81.98;151567.34;5068474;28;20492;-77
2023/04/06 05:15:34;;;;;;;19.10;10.17;;;;;;;0.82;82.54;151578.94;5060937;28;20577;-76
2023/04/06 05:18:08;;;;;;;14.97;10.80;;;;;;;0.86;83.49;151590.47;5052017;28;21014;-76
2023/04/06 05:20:36;;;;;;;13.10;9.70;;;;;;;0.88;82.97;151595.59;5069680;28;20535;-76
2023/04/06 05:23:05;;;;;;;15.17;10.00;;;;;;;0.89;82.24;151598.19;5051091;28;20454;-75
2023/04/06 05:25:33;;;;;;;12.60;8.60;;;;;;;0.92;83.05;151605.91;5067979;28;20549;-75
2023/04/06 05:28:08;;;;;;;11.57;9.67;;;;;;;0.93;80.98;151607.13;5050925;28;20461;-75
2023/04/06 05:30:37;;;;;;;13.67;10.53;;;;;;;0.98;81.75;151621.28;5043437;28;20454;-75
2023/04/06 05:33:05;;;;;;;12.57;9.20;;;;;;;1.00;80.93;151626.44;5051869;28;21037;-76
2023/04/06 05:35:45;;;;;;;12.63;9.90;;;;;;;1.04;81.35;151636.69;5061367;28;20807;-75
2023/04/06 05:38:15;;;;;;;13.43;9.57;;;;;;;1.07;80.55;151644.41;5059719;28;21010;-75
2023/04/06 05:40:42;;;;;;;15.70;11.17;;;;;;;1.12;79.88;151655.97;5069166;28;20496;-76
2023/04/06 05:43:13;;;;;;;12.10;9.33;;;;;;;1.18;80.04;151671.38;5043932;28;20877;-75
2023/04/06 05:45:45;;;;;;;12.67;9.50;;;;;;;1.22;81.24;151682.94;5051319;28;20482;-76
2023/04/06 05:48:12;;;;;;;13.60;9.70;;;;;;;1.27;81.39;151693.22;5069145;28;20962;-75
2023/04/06 05:50:39;;;;;;;12.07;9.70;;;;;;;1.34;80.74;151711.19;5070142;28;20465;-76
2023/04/06 05:53:06;;;;;;;12.03;9.37;;;;;;;1.44;81.30;151736.88;5051582;28;20913;-75
2023/04/06 05:55:40;;;;;;;11.37;9.00;;;;;;;1.53;80.79;151760.03;5044133;28;20576;-76
2023/04/06 05:58:18;;;;;;;11.67;9.10;;;;;;;1.71;81.45;151806.28;5068255;28;20512;-76
2023/04/06 06:00:46;;;;;;;13.60;10.47;;;;;;;1.94;81.57;151864.09;5042568;28;21037;-76
2023/04/06 06:03:16;;;;;;;12.37;9.17;;;;;;;2.25;81.29;151943.84;5042589;28;20806;-76
2023/04/06 06:05:48;;;;;;;13.37;10.33;;;;;;;2.63;81.04;152040.25;5050334;28;20562;-76
2023/04/06 06:08:21;;;;;;;13.27;9.93;;;;;;;2.94;79.38;152120.00;5068392;28;20443;-76
2023/04/06 06:10:51;;;;;;;12.70;9.93;;;;;;;3.23;78.12;152194.63;5066919;28;20457;-76
2023/04/06 06:13:21;;;;;;;14.40;10.60;;;;;;;3.50;75.58;152264.16;5057760;28;20478;-77
2023/04/06 06:15:49;;;;;;;14.47;10.67;;;;;;;3.72;75.83;152318.22;5043548;28;20485;-76
2023/04/06 06:18:18;;;;;;;15.67;11.80;;;;;;;3.86;75.41;152355.56;5043636;28;20451;-75
2023/04/06 06:20:45;;;;;;;17.43;11.00;;;;;;;4.00;74.38;152390.31;5045095;28;20442;-76
2023/04/06 06:23:13;;;;;;;14.50;10.90;;;;;;;4.12;72.85;152421.25;5068880;28;20811;-77
2023/04/06 06:25:40;;;;;;;18.47;12.90;;;;;;;4.34;72.16;152476.63;5048757;28;20827;-76
2023/04/06 06:28:08;;;;;;;11.20;9.80;;;;;;;4.54;71.86;152529.44;5065243;28;20460;-76
2023/04/06 06:30:36;;;;;;;13.90;10.93;;;;;;;4.78;69.96;152591.28;5060045;28;20496;-76
2023/04/06 06:33:03;;;;;;;17.03;12.07;;;;;;;4.99;68.73;152642.81;5065819;28;20461;-77
2023/04/06 06:35:31;;;;;;;13.67;10.67;;;;;;;5.20;69.67;152698.25;5066199;28;20476;-76
2023/04/06 06:38:01;;;;;;;17.30;12.00;;;;;;;5.42;69.55;152755.00;5064595;28;20450;-77
2023/04/06 06:40:28;;;;;;;13.80;10.83;;;;;;;5.59;67.58;152797.50;5067847;28;20450;-77
2023/04/06 06:42:56;;;;;;;12.67;11.27;;;;;;;5.78;67.68;152846.53;5049895;28;20465;-75
2023/04/06 06:45:35;;;;;;;12.67;11.20;;;;;;;5.97;67.14;152895.59;5067515;28;20808;-76
2023/04/06 06:48:02;;;;;;;12.80;11.40;;;;;;;6.19;65.54;152949.78;5066944;28;20502;-77
2023/04/06 06:50:29;;;;;;;14.37;11.63;;;;;;;6.40;65.47;153003.97;5067904;28;20454;-76
2023/04/06 06:52:56;;;;;;;14.67;11.10;;;;;;;6.56;64.62;153045.25;5067288;28;20529;-77
2023/04/06 06:55:23;;;;;;;14.07;11.97;;;;;;;6.74;63.01;153093.03;5069492;28;20441;-76
2023/04/06 06:57:50;;;;;;;15.23;11.73;;;;;;;6.84;63.45;153117.53;5083810;28;20454;-76
2023/04/06 07:00:17;;;;;;;14.40;11.50;;;;;;;6.97;63.37;153149.78;5058637;28;20941;-76
2023/04/06 07:02:48;;;;;;;12.87;11.53;;;;;;;7.13;60.99;153191.09;5049304;28;20468;-76
2023/04/06 07:05:15;;;;;;;17.13;12.20;;;;;;;7.26;60.67;153225.97;5067096;28;20477;-76
2023/04/06 07:07:42;;;;;;;16.53;13.53;;;;;;;7.41;61.59;153262.16;5040610;28;20520;-76
2023/04/06 07:10:10;;;;;;;13.60;12.07;;;;;;;7.56;60.91;153302.19;5083668;28;20446;-76
2023/04/06 07:12:38;;;;;;;18.77;12.83;;;;;;;7.73;60.15;153344.81;5067509;28;20452;-77
2023/04/06 07:15:06;;;;;;;13.50;11.87;;;;;;;7.88;59.89;153384.88;5049723;28;20439;-77
2023/04/06 07:17:34;;;;;;;13.30;10.93;;;;;;;8.09;58.29;153437.81;5069506;28;20553;-76
2023/04/06 07:20:03;;;;;;;13.33;11.17;;;;;;;8.31;58.85;153493.47;5046165;28;20801;-75
2023/04/06 07:22:31;;;;;;;14.77;12.53;;;;;;;8.41;58.55;153519.28;5071099;28;20468;-77
2023/04/06 07:24:58;;;;;;;14.67;12.80;;;;;;;8.51;57.98;153546.44;5069837;28;20478;-77
2023/04/06 07:27:25;;;;;;;16.10;12.73;;;;;;;8.65;56.46;153580.03;5085550;28;20434;-77
2023/04/06 07:29:52;;;;;;;13.37;11.53;;;;;;;8.79;57.73;153617.50;5046857;28;20447;-76
2023/04/06 07:32:19;;;;;;;15.67;12.17;;;;;;;9.01;56.46;153673.13;5070966;28;20496;-77
2023/04/06 07:34:46;;;;;;;12.37;11.07;;;;;;;9.17;55.37;153714.50;5052759;28;20439;-77
2023/04/06 07:37:15;;;;;;;18.90;12.10;;;;;;;9.26;55.07;153737.81;5044815;28;20454;-77
2023/04/06 07:39:43;;;;;;;14.93;12.70;;;;;;;9.28;54.42;153742.97;5053423;28;20458;-77
2023/04/06 07:42:10;;;;;;;13.77;11.33;;;;;;;9.32;54.03;153753.31;5070122;28;20799;-77
2023/04/06 07:44:37;;;;;;;16.97;12.57;;;;;;;9.40;56.55;153774.00;5062394;28;20482;-77
2023/04/06 07:47:04;;;;;;;14.50;11.50;;;;;;;9.43;55.05;153781.75;5053317;28;20511;-77
2023/04/06 07:49:32;;;;;;;12.87;10.97;;;;;;;9.61;53.70;153828.34;5070131;28;20457;-77
2023/04/06 07:52:00;;;;;;;13.23;11.80;;;;;;;9.69;53.84;153847.72;5079890;28;20985;-77
2023/04/06 07:54:29;;;;;;;15.83;12.30;;;;;;;9.77;55.23;153868.44;5070774;28;20461;-77
2023/04/06 07:56:56;;;;;;;15.13;12.20;;;;;;;9.86;54.31;153891.75;5076502;28;20482;-76
2023/04/06 07:59:23;;;;;;;15.53;11.97;;;;;;;9.99;52.91;153924.09;5081540;28;20456;-77
2023/04/06 08:01:49;;;;;;;12.97;11.50;;;;;;;10.04;53.59;153937.03;5072763;28;20477;-76
2023/04/06 08:04:16;;;;;;;16.80;12.77;;;;;;;10.17;52.33;153970.72;5090066;28;20770;-76
2023/04/06 08:06:43;;;;;;;13.87;12.00;;;;;;;10.30;53.24;154004.38;5072724;28;20524;-76
2023/04/06 08:09:10;;;;;;;14.63;11.63;;;;;;;10.50;52.73;154056.19;5081946;28;20540;-76
2023/04/06 08:11:38;;;;;;;17.07;13.40;;;;;;;10.61;52.30;154083.38;5089764;28;20445;-77
2023/04/06 08:14:05;;;;;;;13.30;11.90;;;;;;;10.64;51.74;154091.16;5090233;28;20453;-76
2023/04/06 08:16:32;;;;;;;12.93;11.33;;;;;;;10.69;52.72;154104.09;5090751;28;20991;-76
2023/04/06 08:18:59;;;;;;;14.13;11.90;;;;;;;10.80;50.84;154133.84;5089540;28;20454;-76
2023/04/06 08:21:26;;;;;;;15.53;12.57;;;;;;;10.88;49.50;154153.31;5091390;28;20445;-77
2023/04/06 08:23:52;;;;;;;14.10;11.50;;;;;;;11.00;51.43;154185.69;5110675;28;20501;-77
2023/04/06 08:26:19;;;;;;;14.30;11.67;;;;;;;11.02;52.56;154189.56;5092308;28;20471;-76
2023/04/06 08:28:47;;;;;;;14.10;12.60;;;;;;;11.17;50.26;154227.16;5089537;28;20456;-76
2023/04/06 08:31:14;;;;;;;14.13;12.43;;;;;;;11.16;50.50;154224.53;5085255;28;21003;-77
2023/04/06 08:33:41;;;;;;;12.83;11.53;;;;;;;11.18;50.57;154229.72;5090683;28;20547;-77
2023/04/06 08:36:10;;;;;;;15.30;12.40;;;;;;;11.13;51.08;154218.06;5092629;28;20445;-77
2023/04/06 08:38:37;;;;;;;16.23;12.83;;;;;;;11.05;51.28;154196.03;5090603;28;20452;-76
2023/04/06 08:41:08;;;;;;;13.20;11.80;;;;;;;11.10;49.12;154208.97;5109373;28;20594;-77
2023/04/06 08:43:44;;;;;;;14.30;11.80;;;;;;;11.18;48.15;154231.00;5108840;28;20448;-78
2023/04/06 08:46:13;;;;;;;14.60;11.33;;;;;;;11.25;46.70;154247.88;5085819;28;20521;-77
2023/04/06 08:48:41;;;;;;;13.00;11.70;;;;;;;11.36;47.88;154277.63;5107536;28;20452;-78
2023/04/06 08:51:09;;;;;;;13.57;11.70;;;;;;;11.30;46.27;154262.13;5100887;28;20463;-77
2023/04/06 08:53:35;;;;;;;11.87;10.40;;;;;;;11.30;44.09;154260.81;5091391;28;20958;-77
2023/04/06 08:56:03;;;;;;;12.67;11.30;;;;;;;11.32;44.05;154267.31;5083514;28;20432;-77
2023/04/06 08:58:34;;;;;;;12.23;10.93;;;;;;;11.37;43.60;154278.94;5068106;28;20471;-77
2023/04/06 09:01:02;;;;;;;12.77;11.47;;;;;;;11.24;45.34;154245.25;5108975;28;20488;-77
2023/04/06 09:03:31;;;;;;;10.90;9.57;;;;;;;11.02;43.51;154190.84;5091357;28;20469;-77
2023/04/06 09:05:59;;;;;;;13.10;10.13;;;;;;;10.97;44.81;154177.91;5109775;28;20508;-77
2023/04/06 09:08:26;;;;;;;12.73;11.17;;;;;;;11.20;44.45;154236.19;5108836;28;20459;-77
2023/04/06 09:10:54;;;;;;;13.20;11.10;;;;;;;11.17;43.17;154228.44;5109015;28;20459;-77
2023/04/06 09:13:20;;;;;;;11.00;9.40;;;;;;;11.07;43.99;154201.25;5091363;28;20453;-77
2023/04/06 09:15:47;;;;;;;11.57;9.77;;;;;;;11.08;41.91;154205.13;5108948;28;20533;-77
2023/04/06 09:18:15;;;;;;;14.90;9.97;;;;;;;10.90;42.62;154158.50;5085686;28;20452;-77
2023/04/06 09:20:43;;;;;;;12.50;10.50;;;;;;;10.96;43.49;154175.31;5091424;28;20497;-77
2023/04/06 09:23:18;;;;;;;14.73;10.03;;;;;;;10.94;40.81;154170.13;5091146;28;21031;-77
2023/04/06 09:25:45;;;;;;;14.00;9.40;;;;;;;10.96;41.41;154174.06;5108746;28;20474;-77
2023/04/06 09:28:12;;;;;;;13.53;9.80;;;;;;;11.07;41.66;154201.25;5084705;28;20440;-77
2023/04/06 09:30:48;;;;;;;12.83;10.50;;;;;;;10.92;42.43;154164.97;5091186;28;20452;-77
2023/04/06 09:33:23;;;;;;;10.77;9.67;;;;;;;10.83;41.79;154141.63;5083880;28;20479;-77
2023/04/06 09:35:52;;;;;;;12.20;10.33;;;;;;;10.83;44.37;154141.63;5091523;28;20969;-77
2023/04/06 09:38:19;;;;;;;12.37;10.20;;;;;;;10.83;44.45;154141.63;5082649;28;20827;-77
2023/04/06 09:40:51;;;;;;;10.87;9.40;;;;;;;10.98;42.85;154180.53;5108424;28;20484;-77
2023/04/06 09:43:25;;;;;;;12.20;10.30;;;;;;;11.07;42.62;154201.25;5108016;28;20888;-78
2023/04/06 09:45:52;;;;;;;14.30;10.47;;;;;;;10.92;41.89;154164.97;5109437;28;20468;-78
2023/04/06 09:48:20;;;;;;;9.00;7.60;;;;;;;10.90;39.98;154159.78;5072769;28;20453;-77
2023/04/06 09:50:48;;;;;;;11.40;8.23;;;;;;;10.93;40.53;154167.53;5085599;28;20437;-77
2023/04/06 09:53:17;;;;;;;9.27;8.27;;;;;;;10.96;39.19;154175.31;5084928;28;20448;-87
2023/04/06 09:55:44;;;;;;;11.27;7.53;;;;;;;10.97;39.87;154177.91;5110474;28;20451;-87
2023/04/06 09:58:14;;;;;;;8.80;6.97;;;;;;;10.92;37.83;154164.97;5101099;28;20967;-87
2023/04/06 10:00:45;;;;;;;8.37;7.30;;;;;;;10.84;38.63;154144.25;5084700;28;20567;-87
2023/04/06 10:03:18;;;;;;;14.97;10.27;;;;;;;10.89;40.45;154157.19;5106921;28;20447;-87
2023/04/06 10:05:49;;;;;;;12.40;9.80;;;;;;;10.88;45.08;154153.31;5110228;28;20464;-88
2023/04/06 10:08:19;;;;;;;9.23;8.33;;;;;;;10.87;40.34;154152.03;5107362;28;20997;-87
2023/04/06 10:10:46;;;;;;;11.00;8.60;;;;;;;10.72;40.15;154113.13;5091238;28;20449;-86
2023/04/06 10:13:13;;;;;;;7.30;6.47;;;;;;;10.75;39.76;154120.91;5109063;28;20459;-87
2023/04/06 10:15:40;;;;;;;11.33;9.40;;;;;;;10.66;40.19;154097.63;5082556;28;20983;-87
2023/04/06 10:18:07;;;;;;;9.57;8.10;;;;;;;10.61;39.16;154083.38;5082596;28;20604;-87
2023/04/06 10:20:38;;;;;;;11.53;9.40;;;;;;;10.46;38.90;154045.81;5087544;28;20473;-87
2023/04/06 10:23:09;;;;;;;10.33;7.80;;;;;;;10.49;38.73;154052.28;5082467;28;20458;-87
2023/04/06 10:25:37;;;;;;;12.90;7.77;;;;;;;10.50;39.36;154056.19;5087799;28;20834;-87
2023/04/06 10:28:06;;;;;;;9.93;7.70;;;;;;;10.55;37.31;154069.13;5087491;28;20480;-87
2023/04/06 10:30:34;;;;;;;9.03;7.60;;;;;;;10.50;37.54;154054.88;5104819;28;20461;-86
2023/04/06 10:33:00;;;;;;;8.30;6.50;;;;;;;10.45;37.83;154043.25;5088263;28;20473;-86
2023/04/06 10:35:37;;;;;;;12.00;8.10;;;;;;;10.43;37.62;154036.78;5089285;28;20453;-87
2023/04/06 10:38:05;;;;;;;9.60;7.90;;;;;;;10.26;38.27;153994.03;5087326;28;20461;-86
2023/04/06 10:40:32;;;;;;;8.87;7.40;;;;;;;10.35;38.00;154017.38;5080999;28;21025;-86
2023/04/06 10:43:10;;;;;;;8.50;7.07;;;;;;;10.37;38.88;154022.53;5098812;28;20446;-87
2023/04/06 10:45:40;;;;;;;12.03;7.60;;;;;;;10.49;37.68;154053.59;5104647;28;20460;-87
2023/04/06 10:48:18;;;;;;;9.97;8.17;;;;;;;10.56;38.08;154070.44;5079897;28;20510;-87
2023/04/06 10:50:46;;;;;;;8.93;7.50;;;;;;;10.64;38.13;154091.16;5089637;28;20445;-87
2023/04/06 10:53:22;;;;;;;9.57;7.20;;;;;;;10.56;39.64;154071.75;5084161;28;20485;-87
2023/04/06 10:55:51;;;;;;;8.93;7.37;;;;;;;10.64;43.51;154091.16;5083609;28;20502;-88
2023/04/06 10:58:20;;;;;;;7.40;6.43;;;;;;;10.62;42.91;154087.25;5081706;28;20484;-88
2023/04/06 11:00:47;;;;;;;8.80;7.90;;;;;;;10.60;40.62;154082.06;5098721;28;20953;-88
2023/04/06 11:03:14;;;;;;;11.00;8.23;;;;;;;10.49;39.34;154053.59;5073820;28;20506;-87
2023/04/06 11:05:44;;;;;;;10.73;8.43;;;;;;;10.58;37.19;154076.91;5072938;28;20485;-87
2023/04/06 11:08:11;;;;;;;11.33;8.97;;;;;;;10.53;37.39;154063.97;5090549;28;20450;-87
2023/04/06 11:10:38;;;;;;;10.87;8.87;;;;;;;10.47;37.40;154048.41;5084326;28;20522;-87
2023/04/06 11:13:07;;;;;;;9.13;8.23;;;;;;;10.49;37.37;154052.28;5091417;28;21120;-87
2023/04/06 11:15:36;;;;;;;9.53;7.97;;;;;;;10.41;37.80;154032.88;5092708;28;20538;-87
2023/04/06 11:18:05;;;;;;;9.27;7.50;;;;;;;10.65;36.60;154095.03;5091721;28;20924;-87
2023/04/06 11:20:32;;;;;;;9.67;6.80;;;;;;;10.63;37.83;154089.84;5084877;28;20453;-87
2023/04/06 11:22:59;;;;;;;10.60;7.80;;;;;;;10.62;38.05;154087.25;5091189;28;20473;-87
2023/04/06 11:25:27;;;;;;;9.03;8.10;;;;;;;10.74;38.21;154118.34;5091726;28;20993;-87
2023/04/06 11:27:54;;;;;;;10.57;8.10;;;;;;;10.71;37.14;154110.56;5070372;28;20548;-87